createdAt,value
2019-03-27T00:01:13.993Z,7.90
2019-03-27T00:03:43.647Z,8.10
2019-03-27T00:06:13.701Z,9.00
2019-03-27T00:08:43.896Z,9.37
2019-03-27T00:11:16.112Z,10.87
2019-03-27T00:13:44.867Z,10.37
2019-03-27T00:16:14.560Z,10.97
2019-03-27T00:18:44.223Z,12.73
2019-03-27T00:21:13.911Z,8.77
2019-03-27T00:23:43.891Z,9.93
2019-03-27T00:26:13.583Z,8.53
2019-03-27T00:28:43.250Z,8.47
2019-03-27T00:31:12.920Z,9.90
2019-03-27T00:33:42.679Z,9.57
2019-03-27T00:36:12.471Z,9.70
2019-03-27T00:38:42.155Z,10.40
2019-03-27T00:41:12.168Z,7.80
2019-03-27T00:43:41.830Z,9.83
2019-03-27T00:46:11.520Z,10.43
2019-03-27T00:48:41.183Z,9.90
2019-03-27T00:51:10.872Z,10.00
2019-03-27T00:53:40.818Z,10.43
2019-03-27T00:56:10.499Z,9.47
2019-03-27T00:58:40.159Z,11.40
2019-03-27T01:01:12.011Z,13.10
2019-03-27T01:03:41.907Z,12.50
2019-03-27T01:06:13.515Z,12.97
2019-03-27T01:08:43.448Z,13.57
2019-03-27T01:11:13.628Z,13.13
2019-03-27T01:13:43.522Z,13.20
2019-03-27T01:16:13.709Z,12.27
2019-03-27T01:18:43.759Z,12.73
2019-03-27T01:21:13.451Z,14.17
2019-03-27T01:23:43.482Z,11.93
2019-03-27T01:26:13.265Z,12.90
2019-03-27T01:28:42.926Z,13.57
2019-03-27T01:31:12.831Z,16.90
2019-03-27T01:33:42.632Z,15.77
2019-03-27T01:36:12.774Z,13.50
2019-03-27T01:38:42.566Z,16.13
2019-03-27T01:41:12.228Z,15.47
2019-03-27T01:43:41.922Z,13.10
2019-03-27T01:46:11.583Z,14.87
2019-03-27T01:48:41.264Z,15.03
2019-03-27T01:51:11.087Z,16.73
2019-03-27T01:53:41.125Z,16.20
2019-03-27T01:56:11.243Z,13.90
2019-03-27T01:58:41.464Z,14.77
2019-03-27T02:01:11.686Z,15.23
2019-03-27T02:03:41.501Z,13.40
2019-03-27T02:06:11.496Z,13.07
2019-03-27T02:08:41.323Z,13.37
2019-03-27T02:11:11.106Z,15.53
2019-03-27T02:13:40.811Z,13.80
2019-03-27T02:16:10.472Z,14.80
2019-03-27T02:18:40.572Z,12.87
2019-03-27T02:21:10.575Z,12.97
2019-03-27T02:23:40.260Z,13.13
2019-03-27T02:26:09.930Z,14.53
2019-03-27T02:28:39.610Z,14.30
2019-03-27T02:31:09.640Z,15.20
2019-03-27T02:33:39.664Z,15.60
2019-03-27T02:36:09.657Z,14.30
2019-03-27T02:38:39.829Z,13.63
2019-03-27T02:41:09.590Z,13.83
2019-03-27T02:43:39.723Z,15.13
2019-03-27T02:46:23.702Z,14.87
2019-03-27T02:48:40.692Z,16.27
2019-03-27T02:51:10.356Z,15.80
2019-03-27T02:53:40.044Z,14.17
2019-03-27T02:56:09.703Z,15.87
2019-03-27T02:58:39.390Z,12.73
2019-03-27T03:01:09.055Z,13.43
2019-03-27T03:03:38.871Z,14.80
2019-03-27T03:06:08.720Z,15.97
2019-03-27T03:08:38.763Z,15.07
2019-03-27T03:11:08.637Z,14.47
2019-03-27T03:13:38.607Z,15.67
2019-03-27T03:16:08.272Z,14.97
2019-03-27T03:18:37.968Z,17.77
2019-03-27T03:21:07.632Z,14.30
2019-03-27T03:23:37.312Z,15.27
2019-03-27T03:26:07.135Z,13.70
2019-03-27T03:28:36.817Z,16.23
2019-03-27T03:31:06.656Z,15.33
2019-03-27T03:33:36.888Z,13.80
2019-03-27T03:36:06.736Z,15.43
2019-03-27T03:38:36.669Z,13.60
2019-03-27T03:41:06.544Z,14.40
2019-03-27T03:43:36.358Z,14.23
2019-03-27T03:46:06.150Z,14.10
2019-03-27T03:48:35.944Z,14.70
2019-03-27T03:51:06.597Z,14.90
2019-03-27T03:53:36.378Z,16.47
2019-03-27T03:56:07.347Z,15.10
2019-03-27T03:58:37.863Z,14.37
2019-03-27T04:01:08.332Z,14.67
2019-03-27T04:03:41.665Z,16.50
2019-03-27T04:06:11.498Z,15.10
2019-03-27T04:08:41.537Z,18.00
2019-03-27T04:11:11.329Z,15.83
2019-03-27T04:13:41.114Z,15.40
2019-03-27T04:16:10.789Z,15.53
2019-03-27T04:18:40.680Z,16.30
2019-03-27T04:21:10.472Z,14.70
2019-03-27T04:23:40.314Z,15.73
2019-03-27T04:26:10.854Z,15.43
2019-03-27T04:28:40.780Z,17.17
2019-03-27T04:31:10.677Z,16.33
2019-03-27T04:33:40.542Z,17.17
2019-03-27T04:36:10.336Z,16.17
2019-03-27T04:38:40.281Z,16.43
2019-03-27T04:41:10.117Z,17.60
2019-03-27T04:43:40.134Z,18.63
2019-03-27T04:46:09.923Z,16.37
2019-03-27T04:48:39.588Z,17.53
2019-03-27T04:51:09.775Z,15.70
2019-03-27T04:53:39.574Z,17.30
2019-03-27T04:56:09.404Z,17.60
2019-03-27T04:58:39.164Z,18.23
2019-03-27T05:01:09.225Z,16.53
2019-03-27T05:03:39.245Z,18.97
2019-03-27T05:06:09.132Z,17.93
2019-03-27T05:08:38.795Z,19.70
2019-03-27T05:11:08.785Z,18.90
2019-03-27T05:13:38.803Z,17.87
2019-03-27T05:16:08.588Z,17.40
2019-03-27T05:18:38.731Z,18.73
2019-03-27T05:21:08.512Z,17.90
2019-03-27T05:23:38.692Z,18.27
2019-03-27T05:26:08.583Z,19.73
2019-03-27T05:28:38.373Z,19.53
2019-03-27T05:31:08.402Z,17.90
2019-03-27T05:33:38.063Z,19.93
2019-03-27T05:36:07.755Z,22.20
2019-03-27T05:38:37.639Z,19.13
2019-03-27T05:41:07.323Z,18.00
2019-03-27T05:43:37.293Z,19.60
2019-03-27T05:46:07.283Z,20.83
2019-03-27T05:48:37.630Z,19.47
2019-03-27T05:51:07.420Z,21.23
2019-03-27T05:53:37.178Z,20.27
2019-03-27T05:56:07.244Z,19.17
2019-03-27T05:58:37.036Z,20.27
2019-03-27T06:01:06.719Z,18.37
2019-03-27T06:03:36.384Z,18.93
2019-03-27T06:06:06.183Z,20.20
2019-03-27T06:08:35.847Z,19.60
2019-03-27T06:11:05.706Z,18.83
2019-03-27T06:13:35.500Z,20.30
2019-03-27T06:16:05.332Z,22.17
2019-03-27T06:18:35.139Z,20.27
2019-03-27T06:21:05.164Z,17.70
2019-03-27T06:23:34.923Z,21.83
2019-03-27T06:26:04.680Z,19.57
2019-03-27T06:28:34.339Z,22.60
2019-03-27T06:31:04.023Z,22.27
2019-03-27T06:33:34.053Z,21.50
2019-03-27T06:36:04.047Z,21.80
2019-03-27T06:38:33.733Z,21.77
2019-03-27T06:41:03.496Z,22.80
2019-03-27T06:43:33.183Z,24.40
2019-03-27T06:46:02.856Z,23.80
2019-03-27T06:48:32.549Z,25.93
2019-03-27T06:51:02.213Z,22.83
2019-03-27T06:53:31.902Z,23.50
2019-03-27T06:56:01.563Z,23.83
2019-03-27T06:58:31.257Z,24.33
2019-03-27T07:01:01.544Z,23.87
2019-03-27T07:03:31.744Z,24.73
2019-03-27T07:06:01.556Z,24.50
2019-03-27T07:08:31.701Z,23.47
2019-03-27T07:11:01.819Z,26.63
2019-03-27T07:13:31.608Z,25.73
2019-03-27T07:16:01.733Z,24.30
2019-03-27T07:18:39.859Z,25.23
2019-03-27T07:21:03.024Z,23.80
2019-03-27T07:23:33.093Z,27.80
2019-03-27T07:26:03.315Z,27.70
2019-03-27T07:28:33.164Z,30.37
2019-03-27T07:31:02.871Z,28.33
2019-03-27T07:33:32.995Z,28.43
2019-03-27T07:36:02.807Z,31.30
2019-03-27T07:38:32.923Z,28.23
2019-03-27T07:41:02.780Z,30.80
2019-03-27T07:43:32.828Z,29.83
2019-03-27T07:46:02.613Z,30.77
2019-03-27T07:48:32.376Z,29.00
2019-03-27T07:51:02.503Z,30.77
2019-03-27T07:53:33.030Z,30.13
2019-03-27T07:56:03.452Z,28.30
2019-03-27T07:58:33.252Z,25.90
2019-03-27T08:01:03.588Z,24.50
2019-03-27T08:03:33.811Z,23.13
2019-03-27T08:06:03.935Z,26.20
2019-03-27T08:08:33.699Z,22.10
2019-03-27T08:11:03.707Z,19.50
2019-03-27T08:13:33.551Z,19.30
2019-03-27T08:16:03.401Z,18.37
2019-03-27T08:18:33.193Z,18.60
2019-03-27T08:21:02.891Z,18.87
2019-03-27T08:23:32.687Z,16.03
2019-03-27T08:26:02.531Z,17.30
2019-03-27T08:28:32.630Z,17.47
2019-03-27T08:31:02.765Z,18.10
2019-03-27T08:33:32.894Z,16.07
2019-03-27T08:36:02.707Z,14.83
2019-03-27T08:38:32.503Z,16.50
2019-03-27T08:41:02.638Z,16.37
2019-03-27T08:43:32.435Z,14.50
2019-03-27T08:46:02.358Z,15.10
2019-03-27T08:48:31.999Z,15.20
2019-03-27T08:51:01.703Z,12.47
2019-03-27T08:53:31.372Z,13.53
2019-03-27T08:56:01.563Z,13.80
2019-03-27T08:58:31.523Z,13.23
2019-03-27T09:01:01.225Z,13.20
2019-03-27T09:03:30.978Z,12.63
2019-03-27T09:06:00.677Z,12.33
2019-03-27T09:08:30.695Z,11.13
2019-03-27T09:11:00.392Z,13.47
2019-03-27T09:13:30.059Z,11.97
2019-03-27T09:15:59.802Z,12.07
2019-03-27T09:18:29.816Z,11.73
2019-03-27T09:20:59.647Z,12.40
2019-03-27T09:23:29.432Z,12.90
2019-03-27T09:25:59.103Z,11.80
2019-03-27T09:28:29.163Z,12.50
2019-03-27T09:30:59.196Z,12.20
2019-03-27T09:33:29.287Z,12.97
2019-03-27T09:35:59.070Z,13.93
2019-03-27T09:38:28.846Z,13.23
2019-03-27T09:40:58.531Z,13.60
2019-03-27T09:43:28.201Z,12.97
2019-03-27T09:45:57.897Z,12.07
2019-03-27T09:48:27.925Z,15.07
2019-03-27T09:50:57.587Z,12.10
2019-03-27T09:53:27.255Z,12.43
2019-03-27T09:55:57.729Z,17.07
2019-03-27T09:58:27.760Z,14.90
2019-03-27T10:00:59.143Z,14.53
2019-03-27T10:03:28.884Z,12.83
2019-03-27T10:05:58.650Z,11.67
2019-03-27T10:08:28.320Z,11.77
2019-03-27T10:10:58.435Z,13.73
2019-03-27T10:13:28.447Z,14.67
2019-03-27T10:15:58.463Z,11.97
2019-03-27T10:18:28.487Z,13.70
2019-03-27T10:20:58.149Z,15.93
2019-03-27T10:23:28.211Z,12.83
2019-03-27T10:25:57.876Z,13.70
2019-03-27T10:28:27.578Z,11.80
2019-03-27T10:30:57.244Z,12.53
2019-03-27T10:33:26.942Z,13.73
2019-03-27T10:35:57.113Z,14.67
2019-03-27T10:38:26.809Z,12.43
2019-03-27T10:40:56.476Z,11.67
2019-03-27T10:43:26.472Z,13.10
2019-03-27T10:45:56.447Z,13.30
2019-03-27T10:48:26.144Z,12.27
2019-03-27T10:50:55.915Z,14.17
2019-03-27T10:53:25.961Z,13.63
2019-03-27T10:55:56.596Z,13.20
2019-03-27T10:58:26.630Z,13.03
2019-03-27T11:00:56.408Z,13.60
2019-03-27T11:03:26.243Z,12.43
2019-03-27T11:05:56.252Z,11.90
2019-03-27T11:08:26.060Z,11.60
2019-03-27T11:10:55.833Z,13.77
2019-03-27T11:13:26.091Z,12.83
2019-03-27T11:15:56.251Z,12.80
2019-03-27T11:18:26.133Z,11.00
2019-03-27T11:20:55.799Z,11.00
2019-03-27T11:23:25.659Z,13.13
2019-03-27T11:25:55.767Z,12.10
2019-03-27T11:28:25.596Z,11.77
2019-03-27T11:30:55.379Z,10.83
2019-03-27T11:33:28.773Z,11.13
2019-03-27T11:35:56.904Z,9.97
2019-03-27T11:38:26.583Z,9.83
2019-03-27T11:40:56.363Z,9.30
2019-03-27T11:43:26.195Z,10.10
2019-03-27T11:45:55.863Z,10.30
2019-03-27T11:48:25.573Z,9.77
2019-03-27T11:50:55.237Z,10.37
2019-03-27T11:53:24.931Z,11.50
2019-03-27T11:55:54.604Z,9.93
2019-03-27T11:58:24.454Z,10.43
2019-03-27T12:00:55.249Z,9.27
2019-03-27T12:03:25.311Z,9.83
2019-03-27T12:05:55.205Z,10.17
2019-03-27T12:08:24.896Z,9.50
2019-03-27T12:10:55.182Z,9.20
2019-03-27T12:13:25.478Z,8.60
2019-03-27T12:15:55.268Z,8.73
2019-03-27T12:18:25.096Z,7.97
2019-03-27T12:20:59.462Z,9.87
2019-03-27T12:23:26.463Z,9.00
2019-03-27T12:25:56.273Z,9.20
2019-03-27T12:28:26.100Z,11.30
2019-03-27T12:30:55.771Z,9.80
2019-03-27T12:33:25.919Z,8.97
2019-03-27T12:35:55.583Z,7.77
2019-03-27T12:38:25.751Z,7.70
2019-03-27T12:40:55.544Z,8.20
2019-03-27T12:43:25.376Z,8.40
2019-03-27T12:45:55.136Z,7.00
2019-03-27T12:48:24.973Z,7.40
2019-03-27T12:50:54.652Z,6.83
2019-03-27T12:53:24.515Z,7.00
2019-03-27T12:55:54.386Z,7.13
2019-03-27T12:58:24.551Z,5.70
2019-03-27T13:00:54.231Z,6.70
2019-03-27T13:03:24.485Z,7.20
2019-03-27T13:05:54.180Z,7.00
2019-03-27T13:08:24.095Z,6.30
2019-03-27T13:10:54.257Z,7.60
2019-03-27T13:13:24.490Z,7.50
2019-03-27T13:15:54.168Z,7.10
2019-03-27T13:18:23.965Z,6.63
2019-03-27T13:20:53.648Z,5.90
2019-03-27T13:23:23.480Z,6.60
2019-03-27T13:25:53.299Z,7.00
2019-03-27T13:28:23.096Z,6.70
2019-03-27T13:30:52.776Z,5.50
2019-03-27T13:33:22.515Z,7.40
2019-03-27T13:35:52.190Z,6.30
2019-03-27T13:38:22.040Z,5.67
2019-03-27T13:40:51.727Z,7.00
2019-03-27T13:43:21.559Z,5.60
2019-03-27T13:45:51.316Z,4.90
2019-03-27T13:48:21.239Z,6.67
2019-03-27T13:50:50.930Z,5.90
2019-03-27T13:53:21.031Z,7.40
2019-03-27T13:55:50.848Z,5.80
2019-03-27T13:58:20.632Z,7.20
2019-03-27T14:00:50.311Z,7.30
2019-03-27T14:03:19.974Z,7.27
2019-03-27T14:05:49.657Z,7.93
2019-03-27T14:08:19.497Z,6.70
2019-03-27T14:10:49.316Z,7.83
2019-03-27T14:13:19.217Z,7.07
2019-03-27T14:15:49.344Z,6.03
2019-03-27T14:18:19.650Z,6.70
2019-03-27T14:20:49.788Z,5.97
2019-03-27T14:23:19.583Z,6.43
2019-03-27T14:25:49.421Z,7.27
2019-03-27T14:28:19.531Z,7.00
2019-03-27T14:30:50.564Z,7.10
2019-03-27T14:33:20.760Z,6.50
2019-03-27T14:35:50.508Z,6.90
2019-03-27T14:38:20.828Z,8.03
2019-03-27T14:40:51.069Z,7.53
2019-03-27T14:43:20.900Z,7.00
2019-03-27T14:45:50.725Z,6.93
2019-03-27T14:48:20.522Z,8.50
2019-03-27T14:50:50.329Z,7.70
2019-03-27T14:53:20.270Z,6.57
2019-03-27T14:55:50.511Z,6.73
2019-03-27T14:58:20.326Z,7.47
2019-03-27T15:00:50.335Z,7.20
2019-03-27T15:03:20.493Z,6.97
2019-03-27T15:05:50.268Z,6.47
2019-03-27T15:08:20.092Z,7.77
2019-03-27T15:10:49.840Z,7.17
2019-03-27T15:13:19.820Z,7.33
2019-03-27T15:15:49.864Z,7.17
2019-03-27T15:18:20.082Z,7.60
2019-03-27T15:20:50.196Z,7.50
2019-03-27T15:23:19.984Z,6.63
2019-03-27T15:25:49.704Z,6.07
2019-03-27T15:28:19.579Z,6.10
2019-03-27T15:30:49.367Z,6.00
2019-03-27T15:33:19.463Z,6.90
2019-03-27T15:35:49.269Z,5.03
2019-03-27T15:38:19.063Z,7.07
2019-03-27T15:40:49.184Z,5.43
2019-03-27T15:43:18.994Z,8.00
2019-03-27T15:45:48.700Z,6.10
2019-03-27T15:48:18.366Z,4.10
2019-03-27T15:50:55.627Z,5.40
2019-03-27T15:53:19.703Z,6.37
2019-03-27T15:55:49.362Z,4.70
2019-03-27T15:58:19.141Z,6.17
2019-03-27T16:00:48.830Z,4.83
2019-03-27T16:03:18.688Z,5.70
2019-03-27T16:05:48.623Z,4.80
2019-03-27T16:08:18.447Z,5.50
2019-03-27T16:10:48.281Z,5.83
2019-03-27T16:13:18.244Z,5.90
2019-03-27T16:15:47.925Z,4.63
2019-03-27T16:18:18.448Z,4.93
2019-03-27T16:20:48.456Z,5.37
2019-03-27T16:23:18.459Z,7.03
2019-03-27T16:25:48.479Z,5.70
2019-03-27T16:28:18.275Z,4.83
2019-03-27T16:30:48.092Z,6.10
2019-03-27T16:33:17.771Z,5.17
2019-03-27T16:35:47.635Z,6.10
2019-03-27T16:38:17.751Z,5.20
2019-03-27T16:40:48.344Z,5.10
2019-03-27T16:43:18.742Z,4.70
2019-03-27T16:45:49.531Z,5.40
2019-03-27T16:48:19.264Z,6.23
2019-03-27T16:50:49.304Z,4.67
2019-03-27T16:53:19.684Z,5.37
2019-03-27T16:55:49.335Z,4.67
2019-03-27T16:58:19.320Z,5.80
2019-03-27T17:00:49.482Z,5.60
2019-03-27T17:03:19.300Z,5.70
2019-03-27T17:05:54.266Z,5.60
2019-03-27T17:08:20.896Z,5.40
2019-03-27T17:10:52.295Z,4.93
2019-03-27T17:13:23.159Z,4.77
2019-03-27T17:15:53.004Z,5.57
2019-03-27T17:18:22.711Z,5.33
2019-03-27T17:20:52.445Z,5.13
2019-03-27T17:23:22.549Z,5.50
2019-03-27T17:25:52.220Z,5.90
2019-03-27T17:28:21.908Z,5.27
2019-03-27T17:30:51.568Z,5.30
2019-03-27T17:33:21.480Z,5.73
2019-03-27T17:35:51.151Z,6.20
2019-03-27T17:38:20.851Z,7.37
2019-03-27T17:40:50.516Z,7.43
2019-03-27T17:43:20.704Z,8.20
2019-03-27T17:45:50.982Z,7.70
2019-03-27T17:48:20.758Z,6.63
2019-03-27T17:50:50.575Z,7.27
2019-03-27T17:53:31.136Z,8.73
2019-03-27T17:55:52.175Z,7.43
2019-03-27T17:58:22.015Z,8.60
2019-03-27T18:00:52.611Z,7.40
2019-03-27T18:03:22.387Z,7.30
2019-03-27T18:05:52.127Z,7.40
2019-03-27T18:08:21.900Z,6.63
2019-03-27T18:10:51.862Z,7.30
2019-03-27T18:13:21.568Z,7.80
2019-03-27T18:15:51.231Z,7.83
2019-03-27T18:18:20.952Z,7.63
2019-03-27T18:20:50.603Z,7.50
2019-03-27T18:23:20.259Z,7.27
2019-03-27T18:25:49.963Z,6.70
2019-03-27T18:28:19.625Z,9.07
2019-03-27T18:30:49.333Z,8.40
2019-03-27T18:33:18.985Z,8.87
2019-03-27T18:36:08.007Z,8.60
2019-03-27T18:38:37.824Z,8.57
2019-03-27T18:41:07.618Z,7.17
2019-03-27T18:43:37.439Z,7.50
2019-03-27T18:46:07.772Z,8.40
2019-03-27T18:48:37.587Z,8.33
2019-03-27T18:51:07.482Z,8.10
2019-03-27T18:53:37.719Z,7.80
2019-03-27T18:56:07.511Z,8.73
2019-03-27T18:58:37.215Z,7.80
2019-03-27T19:01:07.120Z,8.43
2019-03-27T19:03:36.780Z,9.80
2019-03-27T19:06:06.644Z,8.53
2019-03-27T19:08:36.495Z,9.23
2019-03-27T19:11:06.283Z,9.17
2019-03-27T19:13:37.828Z,8.20
2019-03-27T19:16:07.752Z,9.20
2019-03-27T19:18:37.538Z,10.23
2019-03-27T19:21:07.379Z,9.30
2019-03-27T19:23:37.206Z,9.30
2019-03-27T19:26:06.873Z,8.93
2019-03-27T19:28:36.550Z,9.13
2019-03-27T19:31:06.744Z,8.73
2019-03-27T19:33:36.564Z,9.90
2019-03-27T19:36:07.261Z,9.20
2019-03-27T19:38:37.413Z,9.17
2019-03-27T19:41:07.209Z,9.50
2019-03-27T19:43:36.890Z,8.40
2019-03-27T19:46:06.722Z,9.60
2019-03-27T19:48:36.975Z,9.60
2019-03-27T19:51:07.398Z,9.63
2019-03-27T19:53:37.208Z,10.53
2019-03-27T19:56:06.875Z,9.43
2019-03-27T19:58:36.735Z,9.10
2019-03-27T20:01:06.889Z,8.07
2019-03-27T20:03:36.755Z,7.70
2019-03-27T20:06:06.615Z,8.50
2019-03-27T20:08:36.667Z,9.47
2019-03-27T20:11:06.819Z,9.50
2019-03-27T20:13:36.636Z,9.50
2019-03-27T20:16:06.423Z,9.17
2019-03-27T20:18:36.256Z,9.47
2019-03-27T20:21:06.372Z,9.47
2019-03-27T20:23:36.392Z,10.17
2019-03-27T20:26:06.184Z,9.40
2019-03-27T20:28:35.867Z,9.20
2019-03-27T20:31:05.664Z,10.23
2019-03-27T20:33:38.073Z,10.60
2019-03-27T20:36:07.400Z,10.73
2019-03-27T20:38:37.216Z,10.70
2019-03-27T20:41:06.954Z,12.00
2019-03-27T20:43:37.212Z,12.83
2019-03-27T20:46:07.095Z,11.50
2019-03-27T20:48:36.779Z,11.77
2019-03-27T20:51:07.255Z,13.57
2019-03-27T20:53:37.207Z,13.10
2019-03-27T20:56:06.885Z,12.90
2019-03-27T20:58:36.659Z,14.40
2019-03-27T21:01:06.847Z,13.63
2019-03-27T21:03:37.067Z,14.37
2019-03-27T21:06:06.988Z,14.90
2019-03-27T21:08:37.098Z,15.40
2019-03-27T21:11:08.348Z,14.90
2019-03-27T21:13:41.232Z,14.73
2019-03-27T21:16:09.595Z,13.87
2019-03-27T21:18:39.500Z,14.20
2019-03-27T21:21:09.339Z,14.13
2019-03-27T21:23:39.131Z,14.17
2019-03-27T21:26:09.777Z,14.90
2019-03-27T21:28:39.776Z,15.10
2019-03-27T21:31:09.619Z,16.97
2019-03-27T21:33:39.424Z,15.00
2019-03-27T21:36:09.241Z,16.93
2019-03-27T21:38:38.900Z,15.73
2019-03-27T21:41:08.759Z,16.00
2019-03-27T21:43:38.550Z,17.40
2019-03-27T21:46:08.687Z,14.53
2019-03-27T21:48:38.483Z,14.57
2019-03-27T21:51:08.316Z,14.13
2019-03-27T21:53:38.316Z,15.17
2019-03-27T21:56:08.453Z,14.10
2019-03-27T21:58:38.243Z,13.90
2019-03-27T22:01:07.934Z,13.50
2019-03-27T22:03:37.765Z,12.90
2019-03-27T22:06:07.590Z,12.43
2019-03-27T22:08:37.443Z,12.53
2019-03-27T22:11:07.086Z,12.50
2019-03-27T22:13:36.763Z,13.60
2019-03-27T22:16:06.947Z,15.03
2019-03-27T22:18:36.734Z,13.97
2019-03-27T22:21:06.677Z,14.30
2019-03-27T22:23:36.795Z,15.60
2019-03-27T22:26:06.574Z,14.93
2019-03-27T22:28:36.400Z,18.13
2019-03-27T22:31:06.407Z,18.30
2019-03-27T22:33:36.223Z,17.70
2019-03-27T22:36:06.119Z,19.00
2019-03-27T22:38:36.179Z,21.23
2019-03-27T22:41:06.232Z,20.97
2019-03-27T22:43:36.195Z,22.83
2019-03-27T22:46:05.944Z,23.63
2019-03-27T22:48:36.028Z,21.83
2019-03-27T22:51:05.790Z,25.60
2019-03-27T22:53:35.482Z,21.20
2019-03-27T22:56:05.497Z,21.97
2019-03-27T22:58:35.498Z,23.97
2019-03-27T23:01:05.872Z,26.27
2019-03-27T23:03:35.866Z,27.03
2019-03-27T23:06:05.665Z,26.50
2019-03-27T23:08:35.443Z,27.10
2019-03-27T23:11:05.887Z,26.27
2019-03-27T23:13:35.971Z,28.50
2019-03-27T23:16:06.002Z,25.10
2019-03-27T23:18:36.024Z,24.80
2019-03-27T23:21:05.786Z,24.80
2019-03-27T23:23:35.648Z,23.93
2019-03-27T23:26:05.479Z,25.10
2019-03-27T23:28:35.596Z,23.70
2019-03-27T23:31:05.895Z,23.37
2019-03-27T23:33:35.708Z,23.03
2019-03-27T23:36:05.523Z,22.83
2019-03-27T23:38:35.735Z,21.73
2019-03-27T23:41:05.748Z,23.27
2019-03-27T23:43:35.575Z,23.40
2019-03-27T23:46:05.272Z,22.30
2019-03-27T23:48:34.935Z,24.03
2019-03-27T23:51:04.623Z,25.30
2019-03-27T23:53:34.282Z,22.70
2019-03-27T23:56:16.028Z,22.60
2019-03-27T23:58:35.605Z,22.60
